sensor_id;sensor_type;location;lat;lon;timestamp;pressure;altitude;pressure_sealevel;temperature;humidity
60479;BME280;46321;48.398;11.754;2022-10-16T00:01:41;96613.13;;;12.57;93.93
60479;BME280;46321;48.398;11.754;2022-10-16T00:04:07;96616.00;;;12.55;93.95
60479;BME280;46321;48.398;11.754;2022-10-16T00:06:32;96610.78;;;12.47;93.73
60479;BME280;46321;48.398;11.754;2022-10-16T00:08:57;96619.75;;;12.46;93.76
60479;BME280;46321;48.398;11.754;2022-10-16T00:11:29;96627.47;;;12.41;93.61
60479;BME280;46321;48.398;11.754;2022-10-16T00:13:57;96625.50;;;12.34;93.94
60479;BME280;46321;48.398;11.754;2022-10-16T00:16:23;96625.69;;;12.33;93.54
60479;BME280;46321;48.398;11.754;2022-10-16T00:18:48;96633.22;;;12.29;93.77
60479;BME280;46321;48.398;11.754;2022-10-16T00:21:17;96632.28;;;12.22;93.92
60479;BME280;46321;48.398;11.754;2022-10-16T00:23:43;96625.16;;;12.22;94.33
60479;BME280;46321;48.398;11.754;2022-10-16T00:26:12;96634.50;;;12.18;93.84
60479;BME280;46321;48.398;11.754;2022-10-16T00:28:37;96633.03;;;12.16;93.95
60479;BME280;46321;48.398;11.754;2022-10-16T00:31:05;96630.88;;;12.11;93.92
60479;BME280;46321;48.398;11.754;2022-10-16T00:33:31;96628.75;;;12.30;93.40
60479;BME280;46321;48.398;11.754;2022-10-16T00:36:00;96626.88;;;12.30;92.52
60479;BME280;46321;48.398;11.754;2022-10-16T00:38:26;96617.56;;;12.19;93.13
60479;BME280;46321;48.398;11.754;2022-10-16T00:40:51;96621.13;;;12.27;92.18
60479;BME280;46321;48.398;11.754;2022-10-16T00:45:58;96615.06;;;12.02;93.70
60479;BME280;46321;48.398;11.754;2022-10-16T00:48:23;96625.81;;;12.01;94.23
60479;BME280;46321;48.398;11.754;2022-10-16T00:50:49;96620.41;;;11.94;95.04
60479;BME280;46321;48.398;11.754;2022-10-16T00:53:14;96619.63;;;11.94;94.84
60479;BME280;46321;48.398;11.754;2022-10-16T00:55:39;96619.78;;;11.92;95.15
60479;BME280;46321;48.398;11.754;2022-10-16T00:58:05;96618.34;;;11.89;95.27
60479;BME280;46321;48.398;11.754;2022-10-16T01:00:30;96617.03;;;11.85;95.11
60479;BME280;46321;48.398;11.754;2022-10-16T01:02:58;96627.28;;;11.88;95.17
60479;BME280;46321;48.398;11.754;2022-10-16T01:05:30;96634.59;;;11.86;95.68
60479;BME280;46321;48.398;11.754;2022-10-16T01:08:16;96639.91;;;11.86;95.82
60479;BME280;46321;48.398;11.754;2022-10-16T01:13:19;96646.03;;;11.87;96.20
60479;BME280;46321;48.398;11.754;2022-10-16T01:15:55;96634.59;;;11.86;96.26
60479;BME280;46321;48.398;11.754;2022-10-16T01:18:39;96636.59;;;11.84;96.45
60479;BME280;46321;48.398;11.754;2022-10-16T01:21:10;96638.97;;;12.18;94.31
60479;BME280;46321;48.398;11.754;2022-10-16T01:29:11;96641.34;;;12.28;93.35
60479;BME280;46321;48.398;11.754;2022-10-16T01:31:42;96642.81;;;12.30;93.33
60479;BME280;46321;48.398;11.754;2022-10-16T01:34:15;96652.44;;;12.31;93.28
60479;BME280;46321;48.398;11.754;2022-10-16T01:36:57;96649.97;;;12.30;93.25
60479;BME280;46321;48.398;11.754;2022-10-16T01:39:29;96644.00;;;12.28;93.08
60479;BME280;46321;48.398;11.754;2022-10-16T01:42:21;96636.22;;;12.26;93.23
60479;BME280;46321;48.398;11.754;2022-10-16T01:44:48;96641.53;;;12.26;92.95
60479;BME280;46321;48.398;11.754;2022-10-16T01:47:16;96638.44;;;12.22;93.42
60479;BME280;46321;48.398;11.754;2022-10-16T01:49:43;96632.28;;;12.22;93.47
60479;BME280;46321;48.398;11.754;2022-10-16T01:52:13;96635.13;;;12.20;92.89
60479;BME280;46321;48.398;11.754;2022-10-16T01:54:42;96641.09;;;12.22;93.08
60479;BME280;46321;48.398;11.754;2022-10-16T01:57:10;96638.22;;;12.24;92.99
60479;BME280;46321;48.398;11.754;2022-10-16T01:59:40;96633.75;;;12.24;92.93
60479;BME280;46321;48.398;11.754;2022-10-16T02:02:09;96636.88;;;12.28;93.20
60479;BME280;46321;48.398;11.754;2022-10-16T02:04:40;96636.88;;;12.28;93.45
60479;BME280;46321;48.398;11.754;2022-10-16T02:07:07;96641.19;;;12.29;94.27
60479;BME280;46321;48.398;11.754;2022-10-16T02:09:34;96645.25;;;12.17;94.66
60479;BME280;46321;48.398;11.754;2022-10-16T02:12:03;96645.88;;;12.03;95.79
60479;BME280;46321;48.398;11.754;2022-10-16T02:14:32;96621.53;;;12.00;96.69
60479;BME280;46321;48.398;11.754;2022-10-16T02:16:57;96614.88;;;12.04;96.34
60479;BME280;46321;48.398;11.754;2022-10-16T02:19:23;96635.25;;;12.03;96.20
60479;BME280;46321;48.398;11.754;2022-10-16T02:21:58;96651.81;;;12.06;95.47
60479;BME280;46321;48.398;11.754;2022-10-16T02:24:37;96657.56;;;12.33;93.89
60479;BME280;46321;48.398;11.754;2022-10-16T02:27:10;96659.50;;;12.00;95.63
60479;BME280;46321;48.398;11.754;2022-10-16T02:29:40;96663.44;;;11.89;96.36
60479;BME280;46321;48.398;11.754;2022-10-16T02:32:11;96656.84;;;12.54;91.98
60479;BME280;46321;48.398;11.754;2022-10-16T02:34:39;96651.31;;;12.71;89.77
60479;BME280;46321;48.398;11.754;2022-10-16T02:37:06;96647.66;;;12.72;90.02
60479;BME280;46321;48.398;11.754;2022-10-16T02:39:32;96645.81;;;12.73;89.53
60479;BME280;46321;48.398;11.754;2022-10-16T02:41:58;96653.34;;;12.69;89.24
60479;BME280;46321;48.398;11.754;2022-10-16T02:44:23;96655.34;;;12.67;88.87
60479;BME280;46321;48.398;11.754;2022-10-16T02:46:49;96660.94;;;12.42;89.72
60479;BME280;46321;48.398;11.754;2022-10-16T02:49:14;96669.47;;;12.52;88.96
60479;BME280;46321;48.398;11.754;2022-10-16T02:51:40;96668.97;;;12.64;87.88
60479;BME280;46321;48.398;11.754;2022-10-16T02:54:05;96661.75;;;12.73;87.56
60479;BME280;46321;48.398;11.754;2022-10-16T02:56:31;96659.47;;;12.69;87.32
60479;BME280;46321;48.398;11.754;2022-10-16T02:58:56;96648.22;;;12.67;87.26
60479;BME280;46321;48.398;11.754;2022-10-16T03:01:22;96641.63;;;12.63;87.79
60479;BME280;46321;48.398;11.754;2022-10-16T03:03:47;96641.09;;;12.68;87.93
60479;BME280;46321;48.398;11.754;2022-10-16T03:06:13;96641.63;;;12.63;87.15
60479;BME280;46321;48.398;11.754;2022-10-16T03:08:38;96649.97;;;12.60;87.71
60479;BME280;46321;48.398;11.754;2022-10-16T03:11:04;96654.44;;;12.59;87.56
60479;BME280;46321;48.398;11.754;2022-10-16T03:13:29;96647.09;;;12.62;87.11
60479;BME280;46321;48.398;11.754;2022-10-16T03:15:54;96648.97;;;12.61;87.32
60479;BME280;46321;48.398;11.754;2022-10-16T03:18:19;96650.31;;;12.57;86.83
60479;BME280;46321;48.398;11.754;2022-10-16T03:20:45;96652.53;;;12.38;87.66
60479;BME280;46321;48.398;11.754;2022-10-16T03:23:10;96652.53;;;12.23;88.68
60479;BME280;46321;48.398;11.754;2022-10-16T03:25:35;96661.88;;;12.10;89.02
60479;BME280;46321;48.398;11.754;2022-10-16T03:28:01;96671.41;;;12.05;89.36
60479;BME280;46321;48.398;11.754;2022-10-16T03:30:26;96668.28;;;12.01;89.79
60479;BME280;46321;48.398;11.754;2022-10-16T03:32:52;96661.22;;;11.93;90.23
60479;BME280;46321;48.398;11.754;2022-10-16T03:35:20;96667.53;;;11.92;90.02
60479;BME280;46321;48.398;11.754;2022-10-16T03:37:45;96666.72;;;11.91;89.59
60479;BME280;46321;48.398;11.754;2022-10-16T03:40:11;96659.75;;;11.90;89.90
60479;BME280;46321;48.398;11.754;2022-10-16T03:42:36;96664.41;;;11.88;89.99
60479;BME280;46321;48.398;11.754;2022-10-16T03:45:02;96659.09;;;11.88;90.27
60479;BME280;46321;48.398;11.754;2022-10-16T03:47:27;96664.06;;;11.91;90.29
60479;BME280;46321;48.398;11.754;2022-10-16T03:49:53;96667.53;;;11.92;90.33
60479;BME280;46321;48.398;11.754;2022-10-16T03:52:18;96663.03;;;11.93;90.30
60479;BME280;46321;48.398;11.754;2022-10-16T03:54:43;96675.13;;;11.95;90.90
60479;BME280;46321;48.398;11.754;2022-10-16T03:57:09;96662.06;;;11.94;91.25
60479;BME280;46321;48.398;11.754;2022-10-16T03:59:34;96672.28;;;11.97;91.15
60479;BME280;46321;48.398;11.754;2022-10-16T04:01:59;96675.59;;;11.99;91.06
60479;BME280;46321;48.398;11.754;2022-10-16T04:04:24;96681.53;;;12.01;91.30
60479;BME280;46321;48.398;11.754;2022-10-16T04:06:50;96674.41;;;12.25;90.30
60479;BME280;46321;48.398;11.754;2022-10-16T04:09:15;96682.91;;;12.51;88.25
60479;BME280;46321;48.398;11.754;2022-10-16T04:11:40;96688.31;;;12.57;87.85
60479;BME280;46321;48.398;11.754;2022-10-16T04:14:06;96693.81;;;12.56;88.19
60479;BME280;46321;48.398;11.754;2022-10-16T04:16:31;96692.09;;;12.63;87.46
60479;BME280;46321;48.398;11.754;2022-10-16T04:18:56;96685.13;;;12.62;87.37
60479;BME280;46321;48.398;11.754;2022-10-16T04:21:22;96683.75;;;12.51;88.08
60479;BME280;46321;48.398;11.754;2022-10-16T04:23:47;96686.66;;;12.41;89.36
60479;BME280;46321;48.398;11.754;2022-10-16T04:26:13;96682.09;;;12.50;89.13
60479;BME280;46321;48.398;11.754;2022-10-16T04:28:38;96685.22;;;12.54;88.81
60479;BME280;46321;48.398;11.754;2022-10-16T04:31:04;96693.19;;;12.54;88.90
60479;BME280;46321;48.398;11.754;2022-10-16T04:33:30;96699.75;;;12.58;89.23
60479;BME280;46321;48.398;11.754;2022-10-16T04:35:56;96683.66;;;12.59;89.05
60479;BME280;46321;48.398;11.754;2022-10-16T04:38:22;96675.03;;;12.73;88.72
60479;BME280;46321;48.398;11.754;2022-10-16T04:40:47;96678.16;;;12.76;88.71
60479;BME280;46321;48.398;11.754;2022-10-16T04:43:12;96685.38;;;12.82;88.34
60479;BME280;46321;48.398;11.754;2022-10-16T04:45:38;96678.50;;;12.88;87.86
60479;BME280;46321;48.398;11.754;2022-10-16T04:48:03;96677.69;;;12.88;88.03
60479;BME280;46321;48.398;11.754;2022-10-16T04:50:28;96668.34;;;12.92;88.21
60479;BME280;46321;48.398;11.754;2022-10-16T04:52:54;96672.53;;;12.86;88.22
60479;BME280;46321;48.398;11.754;2022-10-16T04:55:19;96677.50;;;12.89;87.78
60479;BME280;46321;48.398;11.754;2022-10-16T04:57:44;96678.31;;;12.90;88.05
60479;BME280;46321;48.398;11.754;2022-10-16T05:00:10;96680.50;;;12.86;88.26
60479;BME280;46321;48.398;11.754;2022-10-16T05:02:36;96684.00;;;12.87;88.38
60479;BME280;46321;48.398;11.754;2022-10-16T05:05:01;96695.44;;;12.87;87.94
60479;BME280;46321;48.398;11.754;2022-10-16T05:07:27;96695.91;;;12.91;87.93
60479;BME280;46321;48.398;11.754;2022-10-16T05:09:52;96694.91;;;12.92;88.23
60479;BME280;46321;48.398;11.754;2022-10-16T05:12:18;96688.31;;;12.88;88.31
60479;BME280;46321;48.398;11.754;2022-10-16T05:14:43;96691.59;;;12.90;88.15
60479;BME280;46321;48.398;11.754;2022-10-16T05:17:09;96688.94;;;12.90;88.16
60479;BME280;46321;48.398;11.754;2022-10-16T05:19:34;96690.22;;;12.94;88.46
60479;BME280;46321;48.398;11.754;2022-10-16T05:21:59;96683.25;;;12.93;88.21
60479;BME280;46321;48.398;11.754;2022-10-16T05:24:25;96675.66;;;12.90;87.86
60479;BME280;46321;48.398;11.754;2022-10-16T05:26:50;96678.31;;;12.90;87.88
60479;BME280;46321;48.398;11.754;2022-10-16T05:29:16;96675.47;;;12.91;87.89
60479;BME280;46321;48.398;11.754;2022-10-16T05:31:41;96675.66;;;12.90;87.98
60479;BME280;46321;48.398;11.754;2022-10-16T05:34:07;96671.97;;;12.91;88.22
60479;BME280;46321;48.398;11.754;2022-10-16T05:36:32;96677.13;;;12.92;87.81
60479;BME280;46321;48.398;11.754;2022-10-16T05:38:57;96685.75;;;12.94;87.63
60479;BME280;46321;48.398;11.754;2022-10-16T05:41:23;96687.69;;;12.86;88.21
60479;BME280;46321;48.398;11.754;2022-10-16T05:43:51;96693.16;;;12.84;88.20
60479;BME280;46321;48.398;11.754;2022-10-16T05:46:16;96699.94;;;12.87;87.81
60479;BME280;46321;48.398;11.754;2022-10-16T05:48:42;96712.88;;;12.90;88.02
60479;BME280;46321;48.398;11.754;2022-10-16T05:51:10;96712.22;;;12.88;88.25
60479;BME280;46321;48.398;11.754;2022-10-16T05:53:37;96706.16;;;12.94;87.80
60479;BME280;46321;48.398;11.754;2022-10-16T05:56:03;96712.47;;;12.93;87.71
60479;BME280;46321;48.398;11.754;2022-10-16T05:58:31;96705.13;;;12.95;87.54
60479;BME280;46321;48.398;11.754;2022-10-16T06:01:00;96702.31;;;12.97;87.44
60479;BME280;46321;48.398;11.754;2022-10-16T06:03:26;96709.47;;;12.96;87.43
60479;BME280;46321;48.398;11.754;2022-10-16T06:05:51;96707.78;;;12.95;86.68
60479;BME280;46321;48.398;11.754;2022-10-16T06:08:18;96713.31;;;12.93;86.96
60479;BME280;46321;48.398;11.754;2022-10-16T06:10:44;96714.13;;;12.94;86.37
60479;BME280;46321;48.398;11.754;2022-10-16T06:13:11;96712.22;;;12.88;86.68
60479;BME280;46321;48.398;11.754;2022-10-16T06:15:37;96713.75;;;12.97;85.90
60479;BME280;46321;48.398;11.754;2022-10-16T06:18:04;96718.69;;;13.00;85.36
60479;BME280;46321;48.398;11.754;2022-10-16T06:20:29;96724.66;;;13.02;85.46
60479;BME280;46321;48.398;11.754;2022-10-16T06:22:55;96727.75;;;13.06;85.56
60479;BME280;46321;48.398;11.754;2022-10-16T06:25:20;96732.63;;;13.02;85.98
60479;BME280;46321;48.398;11.754;2022-10-16T06:27:45;96736.84;;;13.12;85.35
60479;BME280;46321;48.398;11.754;2022-10-16T06:30:10;96726.66;;;13.15;85.39
60479;BME280;46321;48.398;11.754;2022-10-16T06:32:36;96739.88;;;12.93;85.95
60479;BME280;46321;48.398;11.754;2022-10-16T06:35:01;96738.09;;;12.25;90.38
60479;BME280;46321;48.398;11.754;2022-10-16T06:37:27;96753.25;;;12.16;91.36
60479;BME280;46321;48.398;11.754;2022-10-16T06:39:52;96753.06;;;12.18;92.08
60479;BME280;46321;48.398;11.754;2022-10-16T06:42:18;96757.31;;;11.80;95.32
60479;BME280;46321;48.398;11.754;2022-10-16T06:44:43;96761.31;;;11.76;97.85
60479;BME280;46321;48.398;11.754;2022-10-16T06:47:09;96763.78;;;11.77;98.71
60479;BME280;46321;48.398;11.754;2022-10-16T06:49:34;96776.69;;;12.04;99.68
60479;BME280;46321;48.398;11.754;2022-10-16T06:51:59;96775.00;;;12.50;100.00
60479;BME280;46321;48.398;11.754;2022-10-16T06:54:25;96771.84;;;13.00;99.69
60479;BME280;46321;48.398;11.754;2022-10-16T06:56:50;96775.00;;;13.56;97.96
60479;BME280;46321;48.398;11.754;2022-10-16T06:59:16;96775.63;;;14.17;95.63
60479;BME280;46321;48.398;11.754;2022-10-16T07:01:41;96773.94;;;14.96;92.51
60479;BME280;46321;48.398;11.754;2022-10-16T07:04:06;96774.94;;;15.37;86.14
60479;BME280;46321;48.398;11.754;2022-10-16T07:06:33;96764.09;;;15.39;84.39
60479;BME280;46321;48.398;11.754;2022-10-16T07:09:01;96776.38;;;15.33;81.94
60479;BME280;46321;48.398;11.754;2022-10-16T07:11:27;96781.47;;;15.21;81.69
60479;BME280;46321;48.398;11.754;2022-10-16T07:13:52;96790.22;;;15.15;81.37
60479;BME280;46321;48.398;11.754;2022-10-16T07:16:20;96787.34;;;15.09;82.74
60479;BME280;46321;48.398;11.754;2022-10-16T07:18:47;96789.81;;;15.11;82.26
60479;BME280;46321;48.398;11.754;2022-10-16T07:21:21;96780.94;;;16.22;75.47
60479;BME280;46321;48.398;11.754;2022-10-16T07:23:54;96788.94;;;16.56;73.14
60479;BME280;46321;48.398;11.754;2022-10-16T07:26:20;96797.78;;;16.70;72.02
60479;BME280;46321;48.398;11.754;2022-10-16T07:28:46;96798.97;;;16.95;70.99
60479;BME280;46321;48.398;11.754;2022-10-16T07:31:15;96800.47;;;17.57;71.49
60479;BME280;46321;48.398;11.754;2022-10-16T07:33:41;96799.06;;;18.26;69.85
60479;BME280;46321;48.398;11.754;2022-10-16T07:36:09;96788.56;;;18.76;64.28
60479;BME280;46321;48.398;11.754;2022-10-16T07:38:35;96782.47;;;19.63;63.92
60479;BME280;46321;48.398;11.754;2022-10-16T07:41:03;96799.19;;;20.39;61.37
60479;BME280;46321;48.398;11.754;2022-10-16T07:43:29;96804.75;;;21.16;58.73
60479;BME280;46321;48.398;11.754;2022-10-16T07:45:55;96807.53;;;21.74;58.36
60479;BME280;46321;48.398;11.754;2022-10-16T07:48:21;96801.88;;;22.35;54.96
60479;BME280;46321;48.398;11.754;2022-10-16T07:50:47;96806.28;;;22.41;53.25
60479;BME280;46321;48.398;11.754;2022-10-16T07:53:13;96812.03;;;21.98;53.84
60479;BME280;46321;48.398;11.754;2022-10-16T07:55:39;96816.78;;;22.08;54.24
60479;BME280;46321;48.398;11.754;2022-10-16T07:58:05;96814.38;;;22.58;53.27
60479;BME280;46321;48.398;11.754;2022-10-16T08:00:30;96817.50;;;22.84;52.17
60479;BME280;46321;48.398;11.754;2022-10-16T08:02:57;96814.16;;;23.34;50.20
60479;BME280;46321;48.398;11.754;2022-10-16T08:05:25;96807.34;;;23.09;49.33
60479;BME280;46321;48.398;11.754;2022-10-16T08:07:50;96814.53;;;23.43;49.29
60479;BME280;46321;48.398;11.754;2022-10-16T08:10:17;96820.91;;;23.37;48.23
60479;BME280;46321;48.398;11.754;2022-10-16T08:12:43;96819.94;;;24.43;46.65
60479;BME280;46321;48.398;11.754;2022-10-16T08:15:09;96817.13;;;25.53;45.85
60479;BME280;46321;48.398;11.754;2022-10-16T08:17:34;96818.06;;;25.90;44.11
60479;BME280;46321;48.398;11.754;2022-10-16T08:19:59;96822.44;;;26.06;44.32
60479;BME280;46321;48.398;11.754;2022-10-16T08:22:25;96818.69;;;26.18;42.96
60479;BME280;46321;48.398;11.754;2022-10-16T08:24:50;96827.34;;;25.35;42.99
60479;BME280;46321;48.398;11.754;2022-10-16T08:27:15;96836.38;;;25.08;41.84
60479;BME280;46321;48.398;11.754;2022-10-16T08:29:40;96836.59;;;26.29;41.70
60479;BME280;46321;48.398;11.754;2022-10-16T08:32:06;96831.13;;;26.09;40.34
60479;BME280;46321;48.398;11.754;2022-10-16T08:34:31;96829.84;;;26.58;40.21
60479;BME280;46321;48.398;11.754;2022-10-16T08:36:56;96826.84;;;27.02;39.93
60479;BME280;46321;48.398;11.754;2022-10-16T08:39:21;96830.09;;;26.93;38.71
60479;BME280;46321;48.398;11.754;2022-10-16T08:42:23;96830.94;;;27.76;39.36
60479;BME280;46321;48.398;11.754;2022-10-16T08:47:22;96840.41;;;29.10;35.62
60479;BME280;46321;48.398;11.754;2022-10-16T08:50:09;96852.19;;;29.00;35.47
60479;BME280;46321;48.398;11.754;2022-10-16T08:52:39;96842.00;;;29.11;35.49
60479;BME280;46321;48.398;11.754;2022-10-16T08:55:06;96849.28;;;29.70;35.23
60479;BME280;46321;48.398;11.754;2022-10-16T08:57:31;96847.34;;;30.14;33.78
60479;BME280;46321;48.398;11.754;2022-10-16T09:00:00;96847.78;;;30.22;33.56
60479;BME280;46321;48.398;11.754;2022-10-16T09:02:40;96851.06;;;29.80;33.35
60479;BME280;46321;48.398;11.754;2022-10-16T09:13:29;96837.81;;;31.60;30.58
60479;BME280;46321;48.398;11.754;2022-10-16T09:16:27;96834.44;;;31.91;31.00
60479;BME280;46321;48.398;11.754;2022-10-16T09:19:25;96833.41;;;32.38;29.88
60479;BME280;46321;48.398;11.754;2022-10-16T09:21:53;96840.44;;;31.37;30.83
60479;BME280;46321;48.398;11.754;2022-10-16T09:24:25;96834.16;;;32.76;29.89
60479;BME280;46321;48.398;11.754;2022-10-16T09:26:51;96834.63;;;32.09;29.43
60479;BME280;46321;48.398;11.754;2022-10-16T09:29:18;96840.59;;;32.11;30.35
60479;BME280;46321;48.398;11.754;2022-10-16T09:31:48;96829.38;;;32.59;30.77
60479;BME280;46321;48.398;11.754;2022-10-16T09:34:36;96828.72;;;33.17;28.94
60479;BME280;46321;48.398;11.754;2022-10-16T09:37:08;96830.13;;;34.22;28.06
60479;BME280;46321;48.398;11.754;2022-10-16T09:39:51;96834.22;;;35.09;26.98
60479;BME280;46321;48.398;11.754;2022-10-16T09:42:18;96849.22;;;35.20;25.98
60479;BME280;46321;48.398;11.754;2022-10-16T09:44:52;96841.16;;;35.15;26.74
60479;BME280;46321;48.398;11.754;2022-10-16T09:47:21;96848.38;;;34.71;26.31
60479;BME280;46321;48.398;11.754;2022-10-16T09:50:00;96852.13;;;35.24;26.44
60479;BME280;46321;48.398;11.754;2022-10-16T09:52:32;96846.19;;;35.52;26.18
60479;BME280;46321;48.398;11.754;2022-10-16T09:54:58;96855.19;;;36.43;24.56
60479;BME280;46321;48.398;11.754;2022-10-16T09:57:24;96857.63;;;37.51;23.65
60479;BME280;46321;48.398;11.754;2022-10-16T09:59:51;96857.84;;;37.96;22.92
60479;BME280;46321;48.398;11.754;2022-10-16T10:02:28;96857.59;;;38.42;22.23
60479;BME280;46321;48.398;11.754;2022-10-16T10:04:54;96855.09;;;38.66;21.92
60479;BME280;46321;48.398;11.754;2022-10-16T10:07:31;96849.44;;;38.46;22.69
60479;BME280;46321;48.398;11.754;2022-10-16T10:10:02;96854.84;;;38.71;21.58
60479;BME280;46321;48.398;11.754;2022-10-16T10:12:32;96855.09;;;38.66;21.79
60479;BME280;46321;48.398;11.754;2022-10-16T10:15:07;96853.16;;;39.27;21.38
60479;BME280;46321;48.398;11.754;2022-10-16T10:17:46;96850.44;;;39.80;21.10
60479;BME280;46321;48.398;11.754;2022-10-16T10:20:22;96849.09;;;40.10;20.25
60479;BME280;46321;48.398;11.754;2022-10-16T10:22:48;96851.44;;;40.07;20.76
60479;BME280;46321;48.398;11.754;2022-10-16T10:30:48;96848.91;;;41.25;19.13
60479;BME280;46321;48.398;11.754;2022-10-16T10:33:24;96844.13;;;41.49;19.12
60479;BME280;46321;48.398;11.754;2022-10-16T10:42:56;96835.38;;;41.20;19.44
60479;BME280;46321;48.398;11.754;2022-10-16T10:50:36;96845.53;;;40.69;19.46
60479;BME280;46321;48.398;11.754;2022-10-16T11:01:54;96833.50;;;41.28;19.37
60479;BME280;46321;48.398;11.754;2022-10-16T11:07:27;96840.94;;;38.39;21.72
60479;BME280;46321;48.398;11.754;2022-10-16T11:09:59;96825.22;;;38.14;22.54
60479;BME280;46321;48.398;11.754;2022-10-16T11:12:50;96829.50;;;39.30;21.67
60479;BME280;46321;48.398;11.754;2022-10-16T11:15:28;96829.97;;;38.71;21.12
60479;BME280;46321;48.398;11.754;2022-10-16T11:18:01;96821.28;;;39.17;21.18
60479;BME280;46321;48.398;11.754;2022-10-16T11:20:32;96820.75;;;38.51;21.68
60479;BME280;46321;48.398;11.754;2022-10-16T11:23:04;96827.72;;;37.90;21.63
60479;BME280;46321;48.398;11.754;2022-10-16T11:25:32;96832.47;;;35.73;23.76
60479;BME280;46321;48.398;11.754;2022-10-16T11:28:20;96830.56;;;34.87;24.90
60479;BME280;46321;48.398;11.754;2022-10-16T11:30:54;96837.03;;;33.75;27.49
60479;BME280;46321;48.398;11.754;2022-10-16T11:33:41;96846.25;;;32.75;29.55
60479;BME280;46321;48.398;11.754;2022-10-16T11:36:14;96834.13;;;32.07;30.45
60479;BME280;46321;48.398;11.754;2022-10-16T11:38:48;96842.78;;;31.29;31.50
60479;BME280;46321;48.398;11.754;2022-10-16T11:41:22;96841.97;;;30.81;32.03
60479;BME280;46321;48.398;11.754;2022-10-16T11:46:43;96849.97;;;30.00;34.51
60479;BME280;46321;48.398;11.754;2022-10-16T11:49:15;96848.06;;;29.81;34.63
60479;BME280;46321;48.398;11.754;2022-10-16T11:51:46;96838.09;;;29.47;34.65
60479;BME280;46321;48.398;11.754;2022-10-16T11:54:34;96835.56;;;29.51;34.55
60479;BME280;46321;48.398;11.754;2022-10-16T11:57:09;96827.13;;;29.28;34.07
60479;BME280;46321;48.398;11.754;2022-10-16T11:59:45;96832.72;;;28.82;33.32
60479;BME280;46321;48.398;11.754;2022-10-16T12:02:26;96827.66;;;28.70;35.96
60479;BME280;46321;48.398;11.754;2022-10-16T12:07:41;96832.09;;;28.61;35.20
60479;BME280;46321;48.398;11.754;2022-10-16T12:10:23;96832.13;;;28.15;35.74
60479;BME280;46321;48.398;11.754;2022-10-16T12:12:49;96815.56;;;28.11;35.20
60479;BME280;46321;48.398;11.754;2022-10-16T12:15:28;96818.94;;;27.93;36.64
60479;BME280;46321;48.398;11.754;2022-10-16T12:17:55;96821.63;;;27.98;36.42
60479;BME280;46321;48.398;11.754;2022-10-16T12:20:22;96823.25;;;27.99;35.71
60479;BME280;46321;48.398;11.754;2022-10-16T12:23:00;96821.06;;;28.01;35.37
60479;BME280;46321;48.398;11.754;2022-10-16T12:30:26;96833.25;;;27.48;36.87
60479;BME280;46321;48.398;11.754;2022-10-16T12:32:57;96833.34;;;27.11;35.68
60479;BME280;46321;48.398;11.754;2022-10-16T12:35:27;96826.84;;;26.91;36.21
60479;BME280;46321;48.398;11.754;2022-10-16T12:37:54;96821.94;;;26.93;36.54
60479;BME280;46321;48.398;11.754;2022-10-16T12:40:31;96825.47;;;27.09;37.51
60479;BME280;46321;48.398;11.754;2022-10-16T12:42:58;96824.94;;;27.13;36.68
60479;BME280;46321;48.398;11.754;2022-10-16T12:45:29;96822.22;;;27.13;38.38
60479;BME280;46321;48.398;11.754;2022-10-16T12:47:57;96820.00;;;27.25;35.77
60479;BME280;46321;48.398;11.754;2022-10-16T12:50:35;96820.00;;;27.20;36.09
60479;BME280;46321;48.398;11.754;2022-10-16T12:53:03;96814.06;;;27.02;36.59
60479;BME280;46321;48.398;11.754;2022-10-16T12:55:35;96818.97;;;26.95;37.34
60479;BME280;46321;48.398;11.754;2022-10-16T13:00:58;96815.72;;;26.82;37.26
60479;BME280;46321;48.398;11.754;2022-10-16T13:03:48;96820.31;;;26.82;37.22
60479;BME280;46321;48.398;11.754;2022-10-16T13:06:40;96829.03;;;26.68;35.98
60479;BME280;46321;48.398;11.754;2022-10-16T13:16:49;96831.16;;;26.35;37.16
60479;BME280;46321;48.398;11.754;2022-10-16T13:25:36;96838.75;;;26.12;37.00
60479;BME280;46321;48.398;11.754;2022-10-16T13:28:08;96833.00;;;25.92;36.70
60479;BME280;46321;48.398;11.754;2022-10-16T13:30:40;96835.97;;;25.91;37.06
60479;BME280;46321;48.398;11.754;2022-10-16T13:33:13;96833.16;;;25.70;36.33
60479;BME280;46321;48.398;11.754;2022-10-16T13:35:48;96839.13;;;25.67;35.94
60479;BME280;46321;48.398;11.754;2022-10-16T13:38:16;96843.44;;;25.63;35.76
60479;BME280;46321;48.398;11.754;2022-10-16T13:41:03;96839.88;;;25.52;38.31
60479;BME280;46321;48.398;11.754;2022-10-16T13:43:38;96847.66;;;25.43;38.54
60479;BME280;46321;48.398;11.754;2022-10-16T13:46:10;96856.53;;;25.27;39.62
60479;BME280;46321;48.398;11.754;2022-10-16T13:48:39;96854.34;;;25.19;40.36
60479;BME280;46321;48.398;11.754;2022-10-16T13:51:12;96851.59;;;25.14;38.86
60479;BME280;46321;48.398;11.754;2022-10-16T13:53:38;96857.22;;;25.07;38.57
60479;BME280;46321;48.398;11.754;2022-10-16T13:56:06;96854.50;;;25.02;40.09
60479;BME280;46321;48.398;11.754;2022-10-16T13:58:33;96859.91;;;25.02;40.00
60479;BME280;46321;48.398;11.754;2022-10-16T14:01:01;96861.72;;;24.96;39.77
60479;BME280;46321;48.398;11.754;2022-10-16T14:03:27;96858.19;;;24.90;40.92
60479;BME280;46321;48.398;11.754;2022-10-16T14:05:56;96852.66;;;24.75;41.52
60479;BME280;46321;48.398;11.754;2022-10-16T14:08:24;96858.03;;;24.69;41.90
60479;BME280;46321;48.398;11.754;2022-10-16T14:10:53;96862.06;;;24.67;40.19
60479;BME280;46321;48.398;11.754;2022-10-16T14:13:30;96850.09;;;24.57;37.85
60479;BME280;46321;48.398;11.754;2022-10-16T14:15:57;96851.28;;;24.39;38.38
60479;BME280;46321;48.398;11.754;2022-10-16T14:18:26;96857.75;;;24.38;38.98